createdAt,value
2023-09-11T00:00:15.699Z,10.63
2023-09-11T00:02:42.781Z,10.82
2023-09-11T00:05:09.864Z,10.70
2023-09-11T00:07:37.561Z,12.07
2023-09-11T00:10:05.433Z,10.85
2023-09-11T00:12:33.082Z,11.20
2023-09-11T00:15:00.107Z,11.48
2023-09-11T00:17:27.342Z,13.07
2023-09-11T00:19:55.558Z,12.95
2023-09-11T00:22:22.671Z,12.55
2023-09-11T00:24:49.632Z,12.25
2023-09-11T00:27:16.728Z,12.85
2023-09-11T00:29:43.632Z,11.60
2023-09-11T00:32:10.540Z,12.63
2023-09-11T00:34:37.419Z,11.82
2023-09-11T00:37:04.549Z,11.75
2023-09-11T00:39:31.486Z,12.15
2023-09-11T00:41:58.480Z,12.23
2023-09-11T00:44:26.356Z,13.10
2023-09-11T00:46:53.410Z,13.00
2023-09-11T00:49:22.107Z,13.18
2023-09-11T00:51:52.111Z,12.70
2023-09-11T00:54:22.380Z,13.02
2023-09-11T00:56:49.681Z,12.63
2023-09-11T00:59:17.254Z,12.55
2023-09-11T01:01:46.210Z,13.07
2023-09-11T01:04:14.046Z,13.90
2023-09-11T01:06:41.199Z,14.88
2023-09-11T01:09:08.236Z,12.98
2023-09-11T01:11:35.255Z,12.95
2023-09-11T01:14:02.968Z,14.00
2023-09-11T01:16:56.533Z,12.65
2023-09-11T01:19:55.813Z,13.10
2023-09-11T01:22:32.006Z,13.32
2023-09-11T01:25:36.385Z,12.60
2023-09-11T01:28:30.508Z,12.23
2023-09-11T01:31:00.578Z,12.43
2023-09-11T01:33:27.739Z,12.93
2023-09-11T01:35:54.791Z,12.27
2023-09-11T01:38:22.252Z,11.35
2023-09-11T01:40:53.927Z,13.38
2023-09-11T01:43:22.612Z,12.80
2023-09-11T01:45:50.133Z,13.27
2023-09-11T01:48:18.083Z,14.52
2023-09-11T01:50:45.342Z,14.18
2023-09-11T01:53:13.026Z,13.25
2023-09-11T01:55:40.352Z,12.77
2023-09-11T01:58:07.347Z,13.50
2023-09-11T02:00:35.047Z,12.48
2023-09-11T02:03:03.235Z,14.68
2023-09-11T02:05:30.341Z,13.15
2023-09-11T02:07:58.340Z,14.40
2023-09-11T02:10:25.325Z,13.25
2023-09-11T02:12:52.329Z,15.68
2023-09-11T02:15:19.361Z,16.08
2023-09-11T02:17:46.351Z,15.57
2023-09-11T02:20:13.407Z,15.23
2023-09-11T02:22:40.348Z,15.57
2023-09-11T02:25:07.546Z,15.98
2023-09-11T02:27:34.484Z,15.55
2023-09-11T02:30:02.784Z,15.02
2023-09-11T02:32:30.886Z,15.52
2023-09-11T02:34:57.919Z,16.92
2023-09-11T02:37:24.990Z,17.50
2023-09-11T02:39:52.065Z,17.45
2023-09-11T02:42:19.081Z,17.02
2023-09-11T02:44:46.083Z,15.68
2023-09-11T02:47:13.086Z,15.07
2023-09-11T02:49:40.455Z,16.95
2023-09-11T02:52:07.402Z,15.63
2023-09-11T02:54:34.711Z,15.82
2023-09-11T02:57:01.755Z,15.73
2023-09-11T02:59:28.818Z,16.42
2023-09-11T03:01:55.981Z,15.85
2023-09-11T03:04:23.228Z,17.92
2023-09-11T03:06:50.315Z,17.40
2023-09-11T03:09:17.753Z,17.10
2023-09-11T03:11:45.083Z,16.23
2023-09-11T03:14:14.949Z,18.73
2023-09-11T03:16:44.918Z,16.67
2023-09-11T03:19:12.557Z,17.60
2023-09-11T03:21:39.606Z,17.13
2023-09-11T03:24:06.963Z,17.88
2023-09-11T03:26:33.976Z,17.85
2023-09-11T03:29:00.955Z,14.40
2023-09-11T03:31:30.174Z,20.60
2023-09-11T03:33:59.204Z,19.10
2023-09-11T03:36:26.338Z,17.90
2023-09-11T03:38:53.323Z,17.90
2023-09-11T03:41:20.393Z,18.83
2023-09-11T03:43:47.917Z,17.35
2023-09-11T03:46:15.785Z,17.92
2023-09-11T03:48:46.108Z,19.73
2023-09-11T03:51:14.799Z,18.50
2023-09-11T03:53:46.966Z,18.77
2023-09-11T03:56:19.595Z,18.45
2023-09-11T03:58:47.184Z,18.20
2023-09-11T04:01:17.658Z,19.25
2023-09-11T04:03:45.284Z,16.42
2023-09-11T04:06:12.388Z,17.70
2023-09-11T04:08:39.366Z,18.23
2023-09-11T04:11:06.265Z,17.52
2023-09-11T04:13:33.259Z,19.08
2023-09-11T04:16:00.268Z,18.40
2023-09-11T04:18:27.404Z,17.08
2023-09-11T04:21:04.722Z,18.70
2023-09-11T04:23:33.216Z,16.05
2023-09-11T04:26:01.090Z,18.38
2023-09-11T04:28:28.346Z,18.20
2023-09-11T04:30:55.611Z,20.33
2023-09-11T04:33:23.444Z,20.80
2023-09-11T04:35:50.862Z,19.55
2023-09-11T04:38:17.833Z,20.58
2023-09-11T04:40:44.732Z,18.73
2023-09-11T04:43:11.741Z,19.10
2023-09-11T04:45:39.104Z,17.73
2023-09-11T04:48:07.049Z,17.75
2023-09-11T04:50:34.838Z,17.85
2023-09-11T04:53:03.576Z,18.92
2023-09-11T04:55:30.832Z,17.05
2023-09-11T04:57:57.869Z,18.92
2023-09-11T05:00:25.765Z,18.55
2023-09-11T05:02:53.150Z,18.58
2023-09-11T05:05:20.178Z,18.48
2023-09-11T05:07:47.215Z,17.80
2023-09-11T05:10:15.923Z,18.25
2023-09-11T05:12:43.419Z,16.98
2023-09-11T05:15:11.177Z,18.42
2023-09-11T05:17:38.359Z,17.63
2023-09-11T05:20:11.576Z,16.65
2023-09-11T05:22:40.997Z,16.45
2023-09-11T05:25:08.858Z,16.67
2023-09-11T05:27:35.970Z,17.80
2023-09-11T05:30:03.546Z,16.08
2023-09-11T05:32:34.272Z,16.38
2023-09-11T05:35:01.387Z,16.73
2023-09-11T05:37:28.615Z,17.52
2023-09-11T05:39:55.709Z,15.80
2023-09-11T05:42:22.942Z,15.23
2023-09-11T05:44:50.150Z,16.00
2023-09-11T05:47:17.703Z,15.60
2023-09-11T05:49:45.000Z,15.07
2023-09-11T05:52:12.645Z,16.17
2023-09-11T05:54:39.946Z,15.32
2023-09-11T05:57:07.594Z,13.80
2023-09-11T05:59:35.495Z,13.20
2023-09-11T06:02:02.605Z,12.82
2023-09-11T06:04:32.178Z,12.40
2023-09-11T06:06:59.236Z,12.95
2023-09-11T06:09:26.141Z,11.77
2023-09-11T06:11:53.790Z,11.75
2023-09-11T06:14:20.838Z,11.20
2023-09-11T06:16:47.896Z,13.10
2023-09-11T06:19:14.937Z,11.73
2023-09-11T06:21:45.778Z,11.45
2023-09-11T06:24:13.612Z,11.85
2023-09-11T06:26:43.089Z,9.73
2023-09-11T06:29:10.111Z,10.38
2023-09-11T06:31:37.081Z,10.90
2023-09-11T06:34:04.210Z,9.35
2023-09-11T06:36:31.172Z,10.30
2023-09-11T06:38:58.213Z,10.00
2023-09-11T06:41:25.214Z,9.82
2023-09-11T06:43:52.218Z,8.60
2023-09-11T06:46:19.258Z,9.18
2023-09-11T06:48:46.572Z,9.32
2023-09-11T06:51:13.882Z,9.07
2023-09-11T06:53:40.872Z,8.55
2023-09-11T06:56:09.431Z,8.52
2023-09-11T06:58:36.422Z,7.95
2023-09-11T07:01:04.321Z,6.38
2023-09-11T07:03:31.400Z,7.45
2023-09-11T07:05:58.632Z,7.85
2023-09-11T07:08:25.657Z,8.52
2023-09-11T07:10:53.194Z,7.50
2023-09-11T07:13:20.178Z,7.50
2023-09-11T07:15:58.050Z,8.60
2023-09-11T07:18:25.593Z,7.45
2023-09-11T07:20:53.397Z,8.10
2023-09-11T07:23:21.816Z,8.27
2023-09-11T07:25:48.858Z,8.68
2023-09-11T07:28:15.926Z,7.78
2023-09-11T07:30:44.936Z,6.90
2023-09-11T07:33:13.123Z,7.38
2023-09-11T07:35:40.228Z,7.82
2023-09-11T07:38:07.437Z,7.57
2023-09-11T07:40:34.484Z,8.52
2023-09-11T07:43:01.688Z,7.85
2023-09-11T07:45:28.711Z,7.80
2023-09-11T07:47:56.347Z,7.70
2023-09-11T07:50:23.387Z,8.40
2023-09-11T07:52:51.718Z,8.15
2023-09-11T07:55:20.568Z,8.18
2023-09-11T07:57:47.866Z,7.90
2023-09-11T08:00:15.391Z,8.40
2023-09-11T08:02:42.753Z,7.90
2023-09-11T08:05:10.313Z,7.88
2023-09-11T08:07:37.394Z,8.70
2023-09-11T08:10:04.943Z,7.25
2023-09-11T08:12:34.248Z,7.80
2023-09-11T08:15:01.195Z,7.25
2023-09-11T08:17:29.264Z,8.20
2023-09-11T08:19:56.282Z,8.27
2023-09-11T08:22:23.284Z,8.40
2023-09-11T08:24:50.234Z,7.57
2023-09-11T08:27:17.378Z,9.18
2023-09-11T08:29:44.374Z,7.50
2023-09-11T08:32:11.374Z,9.43
2023-09-11T08:34:38.301Z,8.45
2023-09-11T08:37:05.260Z,8.38
2023-09-11T08:39:32.205Z,8.65
2023-09-11T08:42:02.100Z,6.45
2023-09-11T08:44:29.232Z,8.30
2023-09-11T08:47:00.016Z,8.48
2023-09-11T08:49:31.973Z,8.48
2023-09-11T08:52:01.021Z,8.00
2023-09-11T08:54:38.809Z,8.60
2023-09-11T08:57:08.312Z,7.90
2023-09-11T08:59:39.209Z,7.80
2023-09-11T09:02:07.037Z,8.18
2023-09-11T09:04:36.501Z,6.55
2023-09-11T09:07:04.065Z,7.22
2023-09-11T09:09:32.340Z,7.43
2023-09-11T09:11:59.835Z,6.47
2023-09-11T09:14:31.811Z,6.95
2023-09-11T09:17:00.238Z,6.28
2023-09-11T09:19:27.208Z,6.15
2023-09-11T09:22:14.367Z,5.55
2023-09-11T09:24:55.730Z,5.93
2023-09-11T09:27:29.915Z,5.75
2023-09-11T09:29:57.029Z,5.25
2023-09-11T09:32:24.111Z,5.03
2023-09-11T09:34:54.453Z,5.03
2023-09-11T09:37:22.579Z,3.93
2023-09-11T09:39:51.479Z,4.45
2023-09-11T09:42:19.145Z,4.93
2023-09-11T09:44:50.614Z,4.72
2023-09-11T09:47:23.210Z,5.18
2023-09-11T09:49:52.677Z,5.07
2023-09-11T09:52:22.007Z,4.65
2023-09-11T09:54:54.218Z,5.18
2023-09-11T09:57:23.411Z,4.13
2023-09-11T09:59:55.878Z,4.70
2023-09-11T10:02:28.864Z,5.65
2023-09-11T10:05:03.021Z,5.10
2023-09-11T10:07:46.880Z,5.13
2023-09-11T10:10:28.509Z,5.50
2023-09-11T10:15:30.397Z,5.38
2023-09-11T10:17:57.856Z,4.80
2023-09-11T10:20:26.159Z,5.03
2023-09-11T10:23:00.724Z,6.00
2023-09-11T10:25:29.966Z,5.88
2023-09-11T10:28:15.082Z,4.95
2023-09-11T10:31:05.372Z,4.95
2023-09-11T10:33:35.998Z,5.35
2023-09-11T10:36:09.151Z,4.90
2023-09-11T10:38:38.013Z,5.10
2023-09-11T10:41:07.031Z,4.78
2023-09-11T10:43:34.186Z,5.15
2023-09-11T10:46:33.709Z,5.95
2023-09-11T10:49:01.790Z,4.78
2023-09-11T10:51:32.550Z,5.75
2023-09-11T10:54:00.097Z,6.03
2023-09-11T10:56:27.172Z,4.93
2023-09-11T10:58:54.281Z,5.55
2023-09-11T11:01:23.912Z,6.85
2023-09-11T11:03:51.464Z,7.07
2023-09-11T11:06:19.413Z,5.70
2023-09-11T11:08:47.856Z,5.97
2023-09-11T11:11:30.914Z,8.05
2023-09-11T11:14:19.148Z,5.55
2023-09-11T11:17:01.778Z,5.63
2023-09-11T11:19:31.084Z,6.82
2023-09-11T11:21:58.634Z,6.28
2023-09-11T11:24:25.969Z,5.65
2023-09-11T11:26:57.641Z,6.05
2023-09-11T11:32:00.515Z,6.72
2023-09-11T11:34:31.178Z,6.40
2023-09-11T11:36:59.750Z,5.40
2023-09-11T11:39:28.739Z,5.10
2023-09-11T11:41:56.656Z,6.40
2023-09-11T11:44:25.858Z,4.78
2023-09-11T11:46:54.613Z,4.15
2023-09-11T11:49:22.182Z,5.75
2023-09-11T11:51:49.241Z,6.30
2023-09-11T11:54:24.419Z,4.95
2023-09-11T11:57:04.574Z,5.35
2023-09-11T11:59:31.895Z,5.13
2023-09-11T12:01:59.049Z,6.28
2023-09-11T12:04:45.025Z,5.03
2023-09-11T12:07:12.656Z,4.05
2023-09-11T12:09:40.788Z,4.88
2023-09-11T12:12:09.509Z,4.72
2023-09-11T12:14:38.216Z,4.45
2023-09-11T12:17:10.172Z,4.90
2023-09-11T12:22:06.881Z,4.05
2023-09-11T12:24:34.267Z,3.72
2023-09-11T12:27:01.832Z,4.00
2023-09-11T12:29:34.026Z,4.38
2023-09-11T12:32:01.581Z,4.45
2023-09-11T12:34:43.793Z,3.90
2023-09-11T12:37:11.069Z,3.53
2023-09-11T12:39:38.013Z,3.70
2023-09-11T12:42:05.516Z,2.65
2023-09-11T12:44:33.257Z,2.95
2023-09-11T12:47:03.199Z,2.80
2023-09-11T12:49:30.305Z,3.17
2023-09-11T12:51:57.250Z,2.53
2023-09-11T12:54:25.644Z,2.13
2023-09-11T12:56:52.840Z,2.65
2023-09-11T12:59:19.864Z,3.20
2023-09-11T13:01:46.837Z,2.63
2023-09-11T13:04:13.824Z,2.63
2023-09-11T13:06:40.817Z,2.67
2023-09-11T13:09:07.748Z,2.63
2023-09-11T13:11:34.668Z,2.15
2023-09-11T13:14:14.791Z,2.40
2023-09-11T13:16:44.935Z,2.53
2023-09-11T13:19:12.971Z,2.50
2023-09-11T13:21:39.945Z,2.72
2023-09-11T13:24:07.249Z,4.30
2023-09-11T13:26:34.406Z,3.38
2023-09-11T13:29:01.361Z,2.90
2023-09-11T13:31:28.829Z,2.92
2023-09-11T13:33:56.264Z,3.08
2023-09-11T13:36:23.390Z,2.97
2023-09-11T13:38:50.481Z,3.28
2023-09-11T13:41:17.443Z,3.58
2023-09-11T13:43:44.722Z,3.10
2023-09-11T13:46:12.349Z,3.35
2023-09-11T13:48:39.572Z,3.15
2023-09-11T13:51:06.988Z,3.60
2023-09-11T13:53:33.993Z,3.30
2023-09-11T13:56:01.057Z,3.80
2023-09-11T13:58:28.091Z,3.53
2023-09-11T14:00:55.046Z,3.35
2023-09-11T14:03:22.185Z,3.80
2023-09-11T14:05:49.227Z,4.45
2023-09-11T14:08:16.634Z,4.00
2023-09-11T14:10:43.630Z,3.47
2023-09-11T14:13:11.990Z,3.33
2023-09-11T14:15:40.016Z,4.22
2023-09-11T14:18:07.869Z,3.90
2023-09-11T14:20:35.176Z,3.78
2023-09-11T14:23:02.303Z,3.83
2023-09-11T14:25:29.213Z,4.10
2023-09-11T14:27:56.244Z,4.38
2023-09-11T14:30:23.408Z,4.72
2023-09-11T14:32:50.659Z,3.45
2023-09-11T14:35:18.507Z,4.85
2023-09-11T14:37:45.616Z,5.32
2023-09-11T14:40:13.531Z,5.45
2023-09-11T14:42:41.598Z,6.55
2023-09-11T14:45:10.240Z,5.97
2023-09-11T14:47:37.359Z,6.68
2023-09-11T14:50:07.393Z,5.65
2023-09-11T14:52:34.530Z,5.60
2023-09-11T14:55:01.565Z,5.82
2023-09-11T14:57:28.712Z,5.90
2023-09-11T14:59:55.854Z,5.00
2023-09-11T15:02:23.073Z,5.50
2023-09-11T15:04:51.985Z,5.72
2023-09-11T15:07:20.820Z,4.30
2023-09-11T15:09:49.353Z,5.70
2023-09-11T15:12:16.929Z,6.38
2023-09-11T15:14:45.330Z,6.85
2023-09-11T15:17:13.159Z,5.65
2023-09-11T15:19:41.956Z,5.95
2023-09-11T15:22:11.660Z,5.68
2023-09-11T15:24:38.679Z,5.30
2023-09-11T15:27:05.910Z,5.43
2023-09-11T15:29:33.073Z,5.47
2023-09-11T15:34:31.385Z,6.10
2023-09-11T15:36:58.320Z,5.70
2023-09-11T15:39:25.282Z,5.43
2023-09-11T15:41:52.340Z,6.22
2023-09-11T15:44:19.290Z,6.20
2023-09-11T15:46:46.324Z,6.43
2023-09-11T15:49:13.329Z,6.70
2023-09-11T15:51:40.339Z,6.13
2023-09-11T15:54:07.503Z,6.40
2023-09-11T15:56:34.499Z,7.22
2023-09-11T15:59:01.564Z,6.80
2023-09-11T16:01:28.542Z,6.32
2023-09-11T16:03:55.650Z,7.70
2023-09-11T16:06:22.681Z,6.80
2023-09-11T16:08:49.945Z,6.13
2023-09-11T16:11:17.287Z,8.02
2023-09-11T16:13:44.221Z,6.75
2023-09-11T16:16:11.269Z,6.45
2023-09-11T16:18:38.347Z,6.80
2023-09-11T16:21:05.327Z,6.90
2023-09-11T16:23:33.767Z,7.40
2023-09-11T16:26:00.732Z,6.97
2023-09-11T16:28:27.808Z,8.02
2023-09-11T16:30:54.751Z,8.27
2023-09-11T16:33:22.460Z,7.00
2023-09-11T16:35:49.647Z,7.88
2023-09-11T16:38:16.702Z,7.43
2023-09-11T16:40:43.692Z,8.38
2023-09-11T16:43:11.285Z,8.57
2023-09-11T16:45:38.861Z,7.38
2023-09-11T16:48:06.345Z,8.70
2023-09-11T16:50:33.516Z,8.38
2023-09-11T16:53:00.491Z,7.53
2023-09-11T16:55:27.555Z,8.60
2023-09-11T16:57:54.551Z,8.68
2023-09-11T17:00:24.483Z,9.80
2023-09-11T17:02:53.973Z,10.80
2023-09-11T17:05:21.758Z,10.35
2023-09-11T17:07:49.096Z,10.27
2023-09-11T17:10:16.158Z,9.45
2023-09-11T17:12:44.201Z,11.20
2023-09-11T17:15:11.745Z,10.38
2023-09-11T17:17:40.612Z,11.20
2023-09-11T17:20:08.080Z,10.27
2023-09-11T17:22:35.108Z,11.25
2023-09-11T17:25:02.646Z,9.75
2023-09-11T17:27:30.470Z,10.40
2023-09-11T17:29:57.468Z,12.68
2023-09-11T17:32:24.573Z,11.93
2023-09-11T17:34:54.334Z,11.15
2023-09-11T17:37:21.367Z,10.00
2023-09-11T17:39:49.951Z,9.68
2023-09-11T17:42:17.132Z,10.23
2023-09-11T17:44:44.224Z,9.75
2023-09-11T17:47:11.239Z,19.92
2023-09-11T17:49:38.241Z,14.05
2023-09-11T17:52:05.431Z,12.10
2023-09-11T17:54:32.523Z,11.45
2023-09-11T17:56:59.619Z,12.60
2023-09-11T17:59:26.732Z,11.60
2023-09-11T18:01:53.688Z,11.43
2023-09-11T18:04:20.754Z,11.73
2023-09-11T18:06:48.200Z,11.73
2023-09-11T18:09:15.776Z,11.93
2023-09-11T18:11:43.380Z,12.23
2023-09-11T18:14:10.699Z,11.38
2023-09-11T18:16:37.801Z,12.57
2023-09-11T18:19:04.781Z,11.85
2023-09-11T18:21:33.284Z,12.52
2023-09-11T18:24:00.371Z,13.57
2023-09-11T18:26:28.961Z,12.90
2023-09-11T18:28:58.613Z,13.13
2023-09-11T18:31:25.639Z,13.48
2023-09-11T18:33:52.785Z,12.00
2023-09-11T18:36:20.166Z,11.93
2023-09-11T18:38:47.293Z,11.52
2023-09-11T18:41:14.303Z,12.10
2023-09-11T18:43:42.277Z,11.80
2023-09-11T18:46:09.343Z,12.07
2023-09-11T18:48:41.760Z,11.52
2023-09-11T18:51:08.999Z,11.38
2023-09-11T18:53:36.068Z,11.55
2023-09-11T18:56:03.114Z,12.10
2023-09-11T18:58:30.169Z,11.13
2023-09-11T19:00:57.166Z,12.38
2023-09-11T19:03:25.035Z,11.88
2023-09-11T19:05:55.008Z,11.30
2023-09-11T19:08:23.150Z,11.25
2023-09-11T19:10:51.118Z,11.38
2023-09-11T19:13:18.222Z,12.20
2023-09-11T19:15:46.113Z,10.65
2023-09-11T19:18:14.160Z,12.40
2023-09-11T19:20:46.115Z,12.55
2023-09-11T19:23:14.961Z,11.35
2023-09-11T19:25:41.911Z,12.38
2023-09-11T19:28:08.927Z,11.32
2023-09-11T19:30:39.034Z,10.35
2023-09-11T19:33:06.253Z,13.68
2023-09-11T19:35:33.297Z,13.20
2023-09-11T19:38:00.243Z,13.45
2023-09-11T19:40:27.184Z,12.23
2023-09-11T19:42:54.161Z,12.30
2023-09-11T19:45:21.212Z,13.02
2023-09-11T19:47:48.231Z,11.63
2023-09-11T19:50:15.440Z,11.63
2023-09-11T19:52:42.567Z,13.13
2023-09-11T19:55:09.694Z,13.32
2023-09-11T19:57:37.498Z,14.18
2023-09-11T20:00:05.200Z,12.15
2023-09-11T20:02:35.461Z,13.30
2023-09-11T20:05:05.576Z,14.40
2023-09-11T20:07:32.597Z,15.20
2023-09-11T20:10:05.302Z,13.82
2023-09-11T20:12:33.532Z,12.82
2023-09-11T20:15:00.660Z,14.57
2023-09-11T20:17:28.742Z,12.93
2023-09-11T20:19:57.463Z,15.00
2023-09-11T20:22:24.391Z,13.77
2023-09-11T20:24:51.333Z,13.20
2023-09-11T20:27:18.343Z,14.73
2023-09-11T20:29:45.345Z,14.40
2023-09-11T20:32:12.389Z,14.50
2023-09-11T20:34:39.663Z,13.52
2023-09-11T20:37:07.135Z,14.63
2023-09-11T20:39:34.195Z,14.82
2023-09-11T20:42:01.264Z,14.48
2023-09-11T20:44:28.423Z,14.88
2023-09-11T20:46:55.721Z,15.05
2023-09-11T20:49:22.729Z,12.98
2023-09-11T20:51:49.720Z,13.35
2023-09-11T20:54:17.230Z,15.07
2023-09-11T20:56:44.631Z,16.20
2023-09-11T20:59:11.607Z,15.00
2023-09-11T21:01:41.444Z,15.02
2023-09-11T21:04:11.079Z,14.20
2023-09-11T21:06:38.524Z,15.40
2023-09-11T21:09:05.702Z,14.23
2023-09-11T21:11:34.476Z,15.13
2023-09-11T21:14:01.840Z,17.05
2023-09-11T21:16:31.419Z,18.02
2023-09-11T21:18:58.502Z,20.48
2023-09-11T21:21:25.610Z,18.33
2023-09-11T21:23:52.602Z,20.30
2023-09-11T21:26:19.603Z,19.38
2023-09-11T21:28:46.540Z,19.23
2023-09-11T21:31:13.471Z,19.75
2023-09-11T21:33:40.606Z,19.58
2023-09-11T21:36:07.703Z,20.50
2023-09-11T21:38:34.774Z,22.05
2023-09-11T21:41:01.745Z,20.67
2023-09-11T21:43:28.645Z,21.02
2023-09-11T21:45:55.639Z,21.17
2023-09-11T21:48:22.668Z,20.92
2023-09-11T21:50:49.858Z,20.63
2023-09-11T21:53:16.808Z,21.00
2023-09-11T21:55:43.802Z,21.83
2023-09-11T21:58:10.718Z,19.88
2023-09-11T22:00:37.944Z,21.55
2023-09-11T22:03:05.028Z,20.73
2023-09-11T22:05:33.794Z,20.70
2023-09-11T22:08:00.771Z,22.38
2023-09-11T22:10:28.030Z,17.77
2023-09-11T22:12:55.063Z,20.63
2023-09-11T22:15:22.106Z,23.67
2023-09-11T22:17:49.238Z,19.88
2023-09-11T22:20:16.230Z,20.00
2023-09-11T22:22:43.213Z,19.95
2023-09-11T22:25:10.385Z,20.52
2023-09-11T22:27:37.329Z,20.85
2023-09-11T22:30:04.670Z,21.52
2023-09-11T22:32:44.879Z,21.05
2023-09-11T22:35:18.856Z,20.75
2023-09-11T22:37:45.770Z,19.85
2023-09-11T22:40:12.758Z,20.08
2023-09-11T22:42:39.693Z,19.85
2023-09-11T22:45:07.447Z,21.75
2023-09-11T22:47:34.423Z,21.65
2023-09-11T22:50:01.407Z,22.73
2023-09-11T22:52:28.436Z,18.85
2023-09-11T22:54:55.356Z,19.60
2023-09-11T22:57:22.370Z,21.42
2023-09-11T22:59:49.434Z,17.45
2023-09-11T23:02:16.436Z,18.00
2023-09-11T23:04:43.358Z,18.15
2023-09-11T23:07:10.810Z,18.83
2023-09-11T23:09:37.789Z,18.63
2023-09-11T23:12:04.982Z,19.77
2023-09-11T23:14:32.088Z,20.38
2023-09-11T23:16:59.055Z,21.50
2023-09-11T23:19:26.013Z,22.45
2023-09-11T23:21:54.325Z,22.40
2023-09-11T23:24:21.347Z,22.90
2023-09-11T23:26:51.607Z,22.55
2023-09-11T23:29:19.251Z,23.88
2023-09-11T23:31:46.506Z,21.05
2023-09-11T23:34:13.484Z,22.05
2023-09-11T23:36:40.675Z,20.88
2023-09-11T23:39:10.380Z,23.10
2023-09-11T23:41:37.619Z,22.10
2023-09-11T23:44:05.394Z,23.15
2023-09-11T23:46:32.512Z,22.75
2023-09-11T23:48:59.468Z,22.52
2023-09-11T23:51:26.639Z,22.65
2023-09-11T23:53:54.024Z,23.42
2023-09-11T23:56:20.966Z,23.60
2023-09-11T23:58:47.946Z,23.45
